E.r.brandenburg — A8SZ5 — position and weather

sailwx.info

Track history (hours):
 
Tides and Currents Weather Stations Pressure Air Temp Water Temp Dewpoint Dewpoint Depression Visibility Wind Speed Wind Dir Waves Ship Positions

E.r.brandenburg

Last reported at 2016-Apr-30 07:33 UTC. Time now 2016-May-03 12:31 UTC.
Position S 20°05' E 118°26'.

Length 292 m; draft 8.5 m.

Type: Cargo ship. MMSI: 636091798.

Date/timePositionNaut miles runAvg speedWind from/ knotsBaromVisibWave heightAir tempDewpointWater temp
2016-Apr-30 07:33S 20°05' E 118°26'10 9.4
2016-Apr-30 06:30S 20°13' E 118°33'7 0.4
2016-Apr-29 11:04S 20°20' E 118°34'0 0.0
2016-Apr-29 10:22S 20°20' E 118°34'0 0.0
2016-Apr-29 08:22S 20°20' E 118°34'0 0.0
2016-Apr-28 18:04S 20°20' E 118°34'0 0.0
2016-Apr-28 17:28S 20°20' E 118°34'0 0.0
2016-Apr-28 16:28S 20°20' E 118°34'0 0.0
2016-Apr-28 15:28S 20°20' E 118°34'0 0.0
2016-Apr-28 14:22S 20°20' E 118°34'0 0.0
2016-Apr-28 12:16S 20°20' E 118°34'0 0.0
2016-Apr-28 11:22S 20°20' E 118°34'0 0.0
2016-Apr-28 10:04S 20°20' E 118°34'0 0.0
2016-Apr-28 09:16S 20°20' E 118°34'0 0.0
2016-Apr-28 08:28S 20°20' E 118°34'0 0.0
2016-Apr-27 23:04S 20°20' E 118°34'0 0.0
2016-Apr-27 22:28S 20°20' E 118°34'0 0.0
2016-Apr-27 17:22S 20°20' E 118°34'0 0.0
2016-Apr-27 16:16S 20°20' E 118°34'0 0.0
2016-Apr-27 15:28S 20°20' E 118°34'0 0.0
2016-Apr-27 14:28S 20°20' E 118°34'0 0.0
2016-Apr-27 12:16S 20°20' E 118°34'0 0.0
2016-Apr-27 11:22S 20°20' E 118°34'0 0.0
2016-Apr-27 10:28S 20°20' E 118°34'0 0.0
2016-Apr-27 09:04S 20°20' E 118°34'0 0.0
2016-Apr-27 08:16S 20°20' E 118°34'0 0.0
2016-Apr-27 06:10S 20°20' E 118°34'0 0.0
2016-Apr-26 20:28S 20°20' E 118°34'0 0.0
2016-Apr-26 16:04S 20°20' E 118°34'0 0.0
2016-Apr-26 15:04S 20°20' E 118°34'0 0.0
2016-Apr-26 14:04S 20°20' E 118°34'0 0.0
2016-Apr-26 13:16S 20°20' E 118°34'0 0.0
2016-Apr-26 11:10S 20°20' E 118°34'0 0.0
2016-Apr-26 08:16S 20°20' E 118°34'0 0.0
2016-Apr-26 07:33S 20°20' E 118°34'4 3.9
2016-Apr-26 06:33S 20°16' E 118°35'8 8.0
2016-Apr-26 05:31S 20°08' E 118°36'1 0.3
2016-Apr-26 02:14S 20°07' E 118°36'0 0.0
2016-Apr-26 01:26S 20°07' E 118°36'0 0.0
2016-Apr-26 00:26S 20°07' E 118°36'0 0.1
2016-Apr-25 22:20S 20°07' E 118°36'0 0.0
2016-Apr-25 20:32S 20°07' E 118°36'0 0.0
2016-Apr-25 19:14S 20°07' E 118°36'0 0.1
2016-Apr-25 18:26S 20°07' E 118°36'0 0.1
2016-Apr-25 13:32S 20°07' E 118°36'0 0.0
2016-Apr-25 12:26S 20°07' E 118°36'0 0.0
2016-Apr-25 11:32S 20°07' E 118°36'0 0.0
2016-Apr-25 04:08S 20°07' E 118°36'0 0.0
2016-Apr-25 01:20S 20°07' E 118°36'0 0.0
2016-Apr-25 00:32S 20°07' E 118°36'0 0.1
2016-Apr-24 22:26S 20°07' E 118°36'0 0.1
2016-Apr-24 21:32S 20°07' E 118°36'0 0.0
2016-Apr-24 18:14S 20°07' E 118°36'0 0.1
2016-Apr-24 16:32S 20°07' E 118°36'0 0.0
2016-Apr-24 15:32S 20°07' E 118°36'0 0.0
2016-Apr-24 14:14S 20°07' E 118°36'0 0.0
2016-Apr-24 13:32S 20°07' E 118°36'0 0.0
2016-Apr-24 11:20S 20°07' E 118°36'0 0.1
2016-Apr-24 10:26S 20°07' E 118°36'0 0.2
2016-Apr-24 09:26S 20°07' E 118°36'0 0.0
2016-Apr-24 07:26S 20°07' E 118°36'0 0.1
2016-Apr-24 04:32S 20°07' E 118°36'0 0.1
2016-Apr-24 03:26S 20°07' E 118°36'0 0.0
2016-Apr-24 02:05S 20°07' E 118°36'0 0.0
2016-Apr-24 00:23S 20°07' E 118°36'0 0.1
2016-Apr-23 23:29S 20°07' E 118°36'0 0.1
2016-Apr-23 22:23S 20°07' E 118°36'0 0.2
2016-Apr-23 21:11S 20°07' E 118°36'0 0.0
2016-Apr-23 18:29S 20°07' E 118°36'0 0.1
2016-Apr-23 17:23S 20°07' E 118°36'0 0.1
2016-Apr-23 16:17S 20°07' E 118°36'0 0.0
2016-Apr-22 20:05S 20°07' E 118°36'0 0.0
2016-Apr-22 16:17S 20°07' E 118°36'0 0.0
2016-Apr-21 07:17S 20°07' E 118°36'0 0.0
2016-Apr-21 06:29S 20°07' E 118°36'0 0.0
2016-Apr-20 20:23S 20°07' E 118°36'0 0.0
2016-Apr-20 19:29S 20°07' E 118°36'0 0.0
2016-Apr-20 18:29S 20°07' E 118°36'0 0.1
2016-Apr-20 16:17S 20°07' E 118°36'0 0.2
2016-Apr-20 15:23S 20°07' E 118°36'0 0.1
2016-Apr-20 14:29S 20°07' E 118°36'0 0.0
2016-Apr-20 13:23S 20°07' E 118°36'0 0.0
2016-Apr-20 10:29S 20°07' E 118°36'0 0.1
2016-Apr-20 09:23S 20°07' E 118°36'0 0.1
2016-Apr-20 08:29S 20°07' E 118°36'  
Track history (hours):
 
Tides and Currents Weather Stations Pressure Air Temp Water Temp Dewpoint Dewpoint Depression Visibility Wind Speed Wind Dir Waves Ship Positions

E.r.brandenburg

Last reported at 2016-Apr-30 07:33 UTC. Time now 2016-May-03 12:31 UTC.
Position S 20°05' E 118°26'.

Length 292 m; draft 8.5 m.

Type: Cargo ship. MMSI: 636091798.

Date/timePositionNaut miles runAvg speedWind from/ knotsBaromVisibWave heightAir tempDewpointWater temp
2016-Apr-30 07:33S 20°05' E 118°26'10 9.4
2016-Apr-30 06:30S 20°13' E 118°33'7 0.4
2016-Apr-29 11:04S 20°20' E 118°34'0 0.0
2016-Apr-29 10:22S 20°20' E 118°34'0 0.0
2016-Apr-29 08:22S 20°20' E 118°34'0 0.0
2016-Apr-28 18:04S 20°20' E 118°34'0 0.0
2016-Apr-28 17:28S 20°20' E 118°34'0 0.0
2016-Apr-28 16:28S 20°20' E 118°34'0 0.0
2016-Apr-28 15:28S 20°20' E 118°34'0 0.0
2016-Apr-28 14:22S 20°20' E 118°34'0 0.0
2016-Apr-28 12:16S 20°20' E 118°34'0 0.0
2016-Apr-28 11:22S 20°20' E 118°34'0 0.0
2016-Apr-28 10:04S 20°20' E 118°34'0 0.0
2016-Apr-28 09:16S 20°20' E 118°34'0 0.0
2016-Apr-28 08:28S 20°20' E 118°34'0 0.0
2016-Apr-27 23:04S 20°20' E 118°34'0 0.0
2016-Apr-27 22:28S 20°20' E 118°34'0 0.0
2016-Apr-27 17:22S 20°20' E 118°34'0 0.0
2016-Apr-27 16:16S 20°20' E 118°34'0 0.0
2016-Apr-27 15:28S 20°20' E 118°34'0 0.0
2016-Apr-27 14:28S 20°20' E 118°34'0 0.0
2016-Apr-27 12:16S 20°20' E 118°34'0 0.0
2016-Apr-27 11:22S 20°20' E 118°34'0 0.0
2016-Apr-27 10:28S 20°20' E 118°34'0 0.0
2016-Apr-27 09:04S 20°20' E 118°34'0 0.0
2016-Apr-27 08:16S 20°20' E 118°34'0 0.0
2016-Apr-27 06:10S 20°20' E 118°34'0 0.0
2016-Apr-26 20:28S 20°20' E 118°34'0 0.0
2016-Apr-26 16:04S 20°20' E 118°34'0 0.0
2016-Apr-26 15:04S 20°20' E 118°34'0 0.0
2016-Apr-26 14:04S 20°20' E 118°34'0 0.0
2016-Apr-26 13:16S 20°20' E 118°34'0 0.0
2016-Apr-26 11:10S 20°20' E 118°34'0 0.0
2016-Apr-26 08:16S 20°20' E 118°34'0 0.0
2016-Apr-26 07:33S 20°20' E 118°34'4 3.9
2016-Apr-26 06:33S 20°16' E 118°35'8 8.0
2016-Apr-26 05:31S 20°08' E 118°36'1 0.3
2016-Apr-26 02:14S 20°07' E 118°36'0 0.0
2016-Apr-26 01:26S 20°07' E 118°36'0 0.0
2016-Apr-26 00:26S 20°07' E 118°36'0 0.1
2016-Apr-25 22:20S 20°07' E 118°36'0 0.0
2016-Apr-25 20:32S 20°07' E 118°36'0 0.0
2016-Apr-25 19:14S 20°07' E 118°36'0 0.1
2016-Apr-25 18:26S 20°07' E 118°36'0 0.1
2016-Apr-25 13:32S 20°07' E 118°36'0 0.0
2016-Apr-25 12:26S 20°07' E 118°36'0 0.0
2016-Apr-25 11:32S 20°07' E 118°36'0 0.0
2016-Apr-25 04:08S 20°07' E 118°36'0 0.0
2016-Apr-25 01:20S 20°07' E 118°36'0 0.0
2016-Apr-25 00:32S 20°07' E 118°36'0 0.1
2016-Apr-24 22:26S 20°07' E 118°36'0 0.1
2016-Apr-24 21:32S 20°07' E 118°36'0 0.0
2016-Apr-24 18:14S 20°07' E 118°36'0 0.1
2016-Apr-24 16:32S 20°07' E 118°36'0 0.0
2016-Apr-24 15:32S 20°07' E 118°36'0 0.0
2016-Apr-24 14:14S 20°07' E 118°36'0 0.0
2016-Apr-24 13:32S 20°07' E 118°36'0 0.0
2016-Apr-24 11:20S 20°07' E 118°36'0 0.1
2016-Apr-24 10:26S 20°07' E 118°36'0 0.2
2016-Apr-24 09:26S 20°07' E 118°36'0 0.0
2016-Apr-24 07:26S 20°07' E 118°36'0 0.1
2016-Apr-24 04:32S 20°07' E 118°36'0 0.1
2016-Apr-24 03:26S 20°07' E 118°36'0 0.0
2016-Apr-24 02:05S 20°07' E 118°36'0 0.0
2016-Apr-24 00:23S 20°07' E 118°36'0 0.1
2016-Apr-23 23:29S 20°07' E 118°36'0 0.1
2016-Apr-23 22:23S 20°07' E 118°36'0 0.2
2016-Apr-23 21:11S 20°07' E 118°36'0 0.0
2016-Apr-23 18:29S 20°07' E 118°36'0 0.1
2016-Apr-23 17:23S 20°07' E 118°36'0 0.1
2016-Apr-23 16:17S 20°07' E 118°36'0 0.0
2016-Apr-22 20:05S 20°07' E 118°36'0 0.0
2016-Apr-22 16:17S 20°07' E 118°36'0 0.0
2016-Apr-21 07:17S 20°07' E 118°36'0 0.0
2016-Apr-21 06:29S 20°07' E 118°36'0 0.0
2016-Apr-20 20:23S 20°07' E 118°36'0 0.0
2016-Apr-20 19:29S 20°07' E 118°36'0 0.0
2016-Apr-20 18:29S 20°07' E 118°36'0 0.1
2016-Apr-20 16:17S 20°07' E 118°36'0 0.2
2016-Apr-20 15:23S 20°07' E 118°36'0 0.1
2016-Apr-20 14:29S 20°07' E 118°36'0 0.0
2016-Apr-20 13:23S 20°07' E 118°36'0 0.0
2016-Apr-20 10:29S 20°07' E 118°36'0 0.1
2016-Apr-20 09:23S 20°07' E 118°36'0 0.1
2016-Apr-20 08:29S 20°07' E 118°36'  

Dump ship's entire track history